• Join FlightAware (Why Join?)
  • Login
  • US Flag 
Rudolph Flight #1: Arrived! 
05:59PM EST


 

Airport Tracker/Info


-or-


 

Live Flight TrackerFlight Track Log ✈ SWA1563 ✈ 15-Jun-2013 ✈ KMAF - KDAL

Flight Track Log - Related Links

Times and Time Zones

All times are in EDT time to prevent confusion due to time zone crossing. See the SWA1563 flight status page for this flight to view local times or setup timezone preferences in your user account.

Time Position Orientation Groundspeed Altitude Reporting Facility
EDT Latitude Longitude Course Direction KTS MPH feet Rate Location/Type
08:57AM 31.9492 -101.9622 82° East 287 330 10,400  Level Fort Worth Center
08:58AM 31.9611 -101.8672 82° East 293 337 13,200 3,000 Climbing Fort Worth Center
08:59AM 31.9769 -101.7700 79° East 293 337 16,500 2,400 Climbing Fort Worth Center
09:00AM 32.0500 -101.7062 90° East  Level FlightAware Approximate
09:00AM 31.9869 -101.6653 84° East 298 343 18,000  Level Fort Worth Center
09:01AM 32.0664 -101.5847 79° East  Level FlightAware Approximate
09:01AM 32.0072 -101.5511 78° East 329 379 19,300  Level Fort Worth Center
09:02AM 32.0765 -101.4621 82° East  Level FlightAware Approximate
09:02AM 32.0261 -101.4269 80° East 364 419 21,300  Level Fort Worth Center
09:03AM 32.0901 -101.3397 82° East  Level FlightAware Approximate
09:03AM 32.0406 -101.2953 83° East 388 447 23,500  Level Fort Worth Center
09:04AM 32.0611 -101.1686 79° East 393 452 25,500 1,680 Climbing Fort Worth Center
09:05AM 32.0775 -101.0344 82° East 398 458 26,900 1,440 Climbing Fort Worth Center
09:06AM 32.0939 -100.9028 82° East 403 464 28,400 1,320 Climbing Fort Worth Center
09:07AM 32.0956 -100.7606 89° East 414 476 29,600 1,140 Climbing Fort Worth Center
09:08AM 32.0972 -100.6161 89° East 427 491 30,700 1,140 Climbing Fort Worth Center
09:09AM 32.1072 -100.4644 86° East 445 512 31,900 1,140 Climbing Fort Worth Center
09:10AM 32.1131 -100.3150 87° East 451 519 33,000 540 Climbing Fort Worth Center
09:11AM 32.1142 -100.1631 89° East 457 526 33,000  Level Fort Worth Center
09:12AM 32.1181 -99.9914 88° East 462 532 33,000  Level Fort Worth Center
09:13AM 32.1231 -99.8394 88° East 462 532 33,000  Level Fort Worth Center
09:14AM 32.1258 -99.6850 89° East 462 532 33,000  Level Fort Worth Center
09:15AM 32.1308 -99.5306 88° East 462 532 33,000  Level Fort Worth Center
09:16AM 32.1333 -99.3711 89° East 473 544 33,000  Level Fort Worth Center
09:17AM 32.1356 -99.2142 89° East 473 544 33,000  Level Fort Worth Center
09:18AM 32.1397 -99.0622 88° East 473 544 33,000  Level Fort Worth Center
09:19AM 32.1417 -98.9050 89° East 473 544 33,000 -600 Level Fort Worth Center
09:20AM 32.1497 -98.7506 86° East 473 544 31,900 -2,280 Descending Fort Worth Center
09:21AM 32.1806 -98.5989 76° East 473 544 28,500 -3,360 Descending Fort Worth Center
09:22AM 32.2028 -98.4519 80° East 468 539 25,200 -3,000 Descending Fort Worth Center
09:23AM 32.2308 -98.3122 77° East 452 520 22,600 -2,400 Descending Fort Worth Center
09:24AM 32.2506 -98.1897 79° East 428 493 20,400 -2,340 Descending Fort Worth Center
09:25AM 32.2744 -98.0497 79° East 405 466 18,000 -2,280 Descending Fort Worth Center
09:26AM 32.2958 -97.9369 77° East 394 453 15,900 -2,280 Descending Fort Worth Center
09:27AM 32.3169 -97.8042 79° East 370 426 13,500 -2,160 Descending Fort Worth Center
09:28AM 32.3319 -97.7036 80° East 363 418 11,600 -1,260 Descending Fort Worth Center
09:29AM 32.3886 -97.6028 56° Northeast 329 379 11,000 -300 Descending Fort Worth Center
09:30AM 32.4472 -97.5339 45° Northeast 327 376 11,100  Climbing Fort Worth Center
09:31AM 32.5222 -97.4431 46° Northeast 339 390 11,100 -60 Level Fort Worth Center
09:32AM 32.5869 -97.3692 44° Northeast 350 403 11,000 -60 Descending Fort Worth Center
09:33AM 32.6500 -97.3000 43° Northeast 366 421 11,000  Level Dallas / Fort Worth TRACON
09:33AM 32.6622 -97.2753 60° Northeast 356 410 11,000  Level Fort Worth Center
09:34AM 32.7164 -97.2083 46° Northeast 328 377 11,000  Level Fort Worth Center
09:35AM 32.7725 -97.1689 31° Northeast 277 319 11,000 -1,200 Level Fort Worth Center
09:36AM 32.8686 -97.1761 356° North 261 300 8,700 -2,220 Descending Fort Worth Center
09:37AM 32.9081 -97.1189 51° Northeast 238 274 6,600 -1,800 Descending Fort Worth Center
09:38AM 32.9333 -97.0500 66° East 229 264 5,700 -1,440 Descending Dallas / Fort Worth TRACON
09:39AM 32.9333 -97.0000 90° East 193 222 4,200 -1,440 Descending Dallas / Fort Worth TRACON
09:40AM 32.9167 -96.9500 112° Southeast 150 173 2,900 -1,260 Descending Dallas / Fort Worth TRACON
09:41AM 32.9000 -96.9167 121° Southeast 130 150 1,700 -900 Descending Dallas / Fort Worth TRACON
09:42AM 32.8667 -96.8833 140° Southeast 125 144 1,100 -600 Descending Dallas / Fort Worth TRACON
09:44AM 32.8471 -96.8518 73° East  Level Estimated
09:51AM 32.8471 -96.8518 73° East  Level Estimated